sensor_id;sensor_type;location;lat;lon;timestamp;pressure;altitude;pressure_sealevel;temperature;humidity
49044;BME280;34860;48.066;14.124;2023-04-07T00:02:33;96666.41;;;5.21;48.99
49044;BME280;34860;48.066;14.124;2023-04-07T00:05:26;96662.88;;;5.20;48.82
49044;BME280;34860;48.066;14.124;2023-04-07T00:08:15;96661.28;;;5.19;48.82
49044;BME280;34860;48.066;14.124;2023-04-07T00:11:04;96664.03;;;5.19;48.79
49044;BME280;34860;48.066;14.124;2023-04-07T00:13:52;96655.41;;;5.17;48.73
49044;BME280;34860;48.066;14.124;2023-04-07T00:16:41;96656.56;;;5.16;48.80
49044;BME280;34860;48.066;14.124;2023-04-07T00:19:32;96657.75;;;5.15;48.86
49044;BME280;34860;48.066;14.124;2023-04-07T00:22:21;96655.78;;;5.12;48.92
49044;BME280;34860;48.066;14.124;2023-04-07T00:25:10;96654.25;;;5.11;48.81
49044;BME280;34860;48.066;14.124;2023-04-07T00:28:02;96651.88;;;5.09;48.86
49044;BME280;34860;48.066;14.124;2023-04-07T00:30:50;96651.50;;;5.07;48.79
49044;BME280;34860;48.066;14.124;2023-04-07T00:33:39;96654.28;;;5.07;48.89
49044;BME280;34860;48.066;14.124;2023-04-07T00:36:31;96658.19;;;5.06;48.85
49044;BME280;34860;48.066;14.124;2023-04-07T00:39:20;96653.88;;;5.05;48.88
49044;BME280;34860;48.066;14.124;2023-04-07T00:42:09;96650.75;;;5.03;48.88
49044;BME280;34860;48.066;14.124;2023-04-07T00:44:57;96645.63;;;5.02;49.02
49044;BME280;34860;48.066;14.124;2023-04-07T00:47:46;96650.38;;;5.01;48.87
49044;BME280;34860;48.066;14.124;2023-04-07T00:50:34;96644.84;;;4.98;48.79
49044;BME280;34860;48.066;14.124;2023-04-07T00:53:25;96636.59;;;4.94;48.92
49044;BME280;34860;48.066;14.124;2023-04-07T00:56:17;96641.75;;;4.92;49.02
49044;BME280;34860;48.066;14.124;2023-04-07T00:59:07;96634.31;;;4.85;49.12
49044;BME280;34860;48.066;14.124;2023-04-07T01:02:01;96630.75;;;4.81;48.78
49044;BME280;34860;48.066;14.124;2023-04-07T01:04:58;96633.53;;;4.78;48.97
49044;BME280;34860;48.066;14.124;2023-04-07T01:07:50;96631.97;;;4.73;49.03
49044;BME280;34860;48.066;14.124;2023-04-07T01:10:56;96630.41;;;4.68;49.13
49044;BME280;34860;48.066;14.124;2023-04-07T01:13:51;96624.56;;;4.63;49.06
49044;BME280;34860;48.066;14.124;2023-04-07T01:16:53;96619.03;;;4.59;49.18
49044;BME280;34860;48.066;14.124;2023-04-07T01:19:46;96618.69;;;4.53;49.29
49044;BME280;34860;48.066;14.124;2023-04-07T01:22:40;96615.16;;;4.49;49.17
49044;BME280;34860;48.066;14.124;2023-04-07T01:25:53;96624.19;;;4.46;49.17
49044;BME280;34860;48.066;14.124;2023-04-07T01:29:02;96623.44;;;4.42;49.44
49044;BME280;34860;48.066;14.124;2023-04-07T01:31:57;96619.91;;;4.38;49.31
49044;BME280;34860;48.066;14.124;2023-04-07T01:34:47;96617.16;;;4.34;49.30
49044;BME280;34860;48.066;14.124;2023-04-07T01:37:39;96617.19;;;4.31;49.38
49044;BME280;34860;48.066;14.124;2023-04-07T01:40:28;96617.16;;;4.27;49.28
49044;BME280;34860;48.066;14.124;2023-04-07T01:43:17;96614.44;;;4.24;49.52
49044;BME280;34860;48.066;14.124;2023-04-07T01:46:07;96618.75;;;4.21;49.41
49044;BME280;34860;48.066;14.124;2023-04-07T01:48:58;96616.81;;;4.18;49.53
49044;BME280;34860;48.066;14.124;2023-04-07T01:51:48;96610.91;;;4.16;49.30
49044;BME280;34860;48.066;14.124;2023-04-07T01:54:38;96614.84;;;4.15;49.28
49044;BME280;34860;48.066;14.124;2023-04-07T01:57:29;96610.91;;;4.12;49.42
49044;BME280;34860;48.066;14.124;2023-04-07T02:00:22;96608.97;;;4.09;49.30
49044;BME280;34860;48.066;14.124;2023-04-07T02:03:14;96605.44;;;4.09;49.33
49044;BME280;34860;48.066;14.124;2023-04-07T02:06:09;96605.03;;;4.07;49.44
49044;BME280;34860;48.066;14.124;2023-04-07T02:09:04;96596.41;;;4.05;49.37
49044;BME280;34860;48.066;14.124;2023-04-07T02:11:54;96597.56;;;4.04;49.50
49044;BME280;34860;48.066;14.124;2023-04-07T02:14:47;96597.19;;;4.02;49.34
49044;BME280;34860;48.066;14.124;2023-04-07T02:17:37;96594.06;;;3.99;49.60
49044;BME280;34860;48.066;14.124;2023-04-07T02:20:27;96594.44;;;3.98;49.35
49044;BME280;34860;48.066;14.124;2023-04-07T02:23:17;96581.50;;;3.95;49.25
49044;BME280;34860;48.066;14.124;2023-04-07T02:26:07;96584.22;;;3.95;49.37
49044;BME280;34860;48.066;14.124;2023-04-07T02:28:56;96588.16;;;3.94;49.49
49044;BME280;34860;48.066;14.124;2023-04-07T02:31:44;96588.16;;;3.94;49.35
49044;BME280;34860;48.066;14.124;2023-04-07T02:34:32;96582.66;;;3.94;49.39
49044;BME280;34860;48.066;14.124;2023-04-07T02:37:20;96585.41;;;3.94;49.37
49044;BME280;34860;48.066;14.124;2023-04-07T02:40:11;96583.47;;;3.94;49.26
49044;BME280;34860;48.066;14.124;2023-04-07T02:43:02;96577.97;;;3.94;49.35
49044;BME280;34860;48.066;14.124;2023-04-07T02:45:51;96577.56;;;3.92;49.33
49044;BME280;34860;48.066;14.124;2023-04-07T02:48:42;96572.06;;;3.92;49.42
49044;BME280;34860;48.066;14.124;2023-04-07T02:51:30;96571.66;;;3.90;49.37
49044;BME280;34860;48.066;14.124;2023-04-07T02:54:19;96571.66;;;3.90;49.25
49044;BME280;34860;48.066;14.124;2023-04-07T02:57:10;96566.56;;;3.92;49.37
49044;BME280;34860;48.066;14.124;2023-04-07T03:00:00;96572.06;;;3.92;49.47
49044;BME280;34860;48.066;14.124;2023-04-07T03:03:04;96561.06;;;3.92;49.25
49044;BME280;34860;48.066;14.124;2023-04-07T03:05:55;96561.06;;;3.92;49.14
49044;BME280;34860;48.066;14.124;2023-04-07T03:08:43;96560.66;;;3.94;49.44
49044;BME280;34860;48.066;14.124;2023-04-07T03:11:35;96565.00;;;3.91;49.21
49044;BME280;34860;48.066;14.124;2023-04-07T03:14:24;96557.16;;;3.90;49.41
49044;BME280;34860;48.066;14.124;2023-04-07T03:17:13;96562.25;;;3.91;49.43
49044;BME280;34860;48.066;14.124;2023-04-07T03:20:04;96554.78;;;3.88;49.34
49044;BME280;34860;48.066;14.124;2023-04-07T03:22:56;96551.66;;;3.86;49.28
49044;BME280;34860;48.066;14.124;2023-04-07T03:25:47;96546.16;;;3.86;49.36
49044;BME280;34860;48.066;14.124;2023-04-07T03:28:35;96553.63;;;3.86;49.29
49044;BME280;34860;48.066;14.124;2023-04-07T03:31:25;96553.22;;;3.84;49.39
49044;BME280;34860;48.066;14.124;2023-04-07T03:34:14;96552.06;;;3.85;49.29
49044;BME280;34860;48.066;14.124;2023-04-07T03:37:02;96562.66;;;3.79;49.36
49044;BME280;34860;48.066;14.124;2023-04-07T03:39:54;96554.81;;;3.77;49.41
49044;BME280;34860;48.066;14.124;2023-04-07T03:42:49;96552.06;;;3.74;49.42
49044;BME280;34860;48.066;14.124;2023-04-07T03:45:37;96554.41;;;3.72;49.63
49044;BME280;34860;48.066;14.124;2023-04-07T03:48:29;96554.41;;;3.68;49.40
49044;BME280;34860;48.066;14.124;2023-04-07T03:51:24;96560.69;;;3.65;49.55
49044;BME280;34860;48.066;14.124;2023-04-07T03:54:16;96554.44;;;3.61;49.49
49044;BME280;34860;48.066;14.124;2023-04-07T03:57:05;96548.16;;;3.57;49.60
49044;BME280;34860;48.066;14.124;2023-04-07T04:00:04;96556.41;;;3.53;49.48
49044;BME280;34860;48.066;14.124;2023-04-07T04:03:01;96549.72;;;3.51;49.63
49044;BME280;34860;48.066;14.124;2023-04-07T04:05:52;96541.09;;;3.45;49.64
49044;BME280;34860;48.066;14.124;2023-04-07T04:08:46;96547.38;;;3.42;49.58
49044;BME280;34860;48.066;14.124;2023-04-07T04:11:34;96542.66;;;3.39;49.72
49044;BME280;34860;48.066;14.124;2023-04-07T04:14:24;96545.41;;;3.35;49.84
49044;BME280;34860;48.066;14.124;2023-04-07T04:17:17;96542.66;;;3.32;49.67
49044;BME280;34860;48.066;14.124;2023-04-07T04:20:07;96542.28;;;3.30;49.76
49044;BME280;34860;48.066;14.124;2023-04-07T04:23:05;96546.56;;;3.27;49.82
49044;BME280;34860;48.066;14.124;2023-04-07T04:25:54;96537.19;;;3.24;49.80
49044;BME280;34860;48.066;14.124;2023-04-07T04:28:46;96538.34;;;3.23;49.67
49044;BME280;34860;48.066;14.124;2023-04-07T04:31:38;96534.44;;;3.21;49.75
49044;BME280;34860;48.066;14.124;2023-04-07T04:34:27;96532.06;;;3.19;49.72
49044;BME280;34860;48.066;14.124;2023-04-07T04:37:16;96529.72;;;3.18;49.67
49044;BME280;34860;48.066;14.124;2023-04-07T04:40:08;96530.88;;;3.17;49.90
49044;BME280;34860;48.066;14.124;2023-04-07T04:42:58;96539.50;;;3.15;49.67
49044;BME280;34860;48.066;14.124;2023-04-07T04:45:47;96536.38;;;3.13;49.70
49044;BME280;34860;48.066;14.124;2023-04-07T04:48:40;96541.06;;;3.13;49.82
49044;BME280;34860;48.066;14.124;2023-04-07T04:51:28;96536.38;;;3.09;49.84
49044;BME280;34860;48.066;14.124;2023-04-07T04:54:21;96546.97;;;3.07;49.70
49044;BME280;34860;48.066;14.124;2023-04-07T04:57:11;96541.84;;;3.06;49.93
49044;BME280;34860;48.066;14.124;2023-04-07T04:59:59;96545.00;;;3.04;49.73
49044;BME280;34860;48.066;14.124;2023-04-07T05:02:48;96549.69;;;3.04;50.02
49044;BME280;34860;48.066;14.124;2023-04-07T05:05:36;96548.94;;;3.03;49.89
49044;BME280;34860;48.066;14.124;2023-04-07T05:08:28;96548.13;;;3.03;49.85
49044;BME280;34860;48.066;14.124;2023-04-07T05:11:16;96553.63;;;3.03;49.76
49044;BME280;34860;48.066;14.124;2023-04-07T05:14:10;96550.47;;;3.01;49.90
49044;BME280;34860;48.066;14.124;2023-04-07T05:17:03;96546.56;;;3.02;49.74
49044;BME280;34860;48.066;14.124;2023-04-07T05:19:53;96548.50;;;3.01;49.81
49044;BME280;34860;48.066;14.124;2023-04-07T05:22:54;96543.03;;;3.01;50.03
49044;BME280;34860;48.066;14.124;2023-04-07T05:25:49;96541.09;;;3.02;49.78
49044;BME280;34860;48.066;14.124;2023-04-07T05:28:38;96539.50;;;3.01;49.88
49044;BME280;34860;48.066;14.124;2023-04-07T05:31:34;96541.09;;;3.02;49.86
49044;BME280;34860;48.066;14.124;2023-04-07T05:34:28;96536.38;;;3.02;49.80
49044;BME280;34860;48.066;14.124;2023-04-07T05:37:17;96537.94;;;3.03;49.99
49044;BME280;34860;48.066;14.124;2023-04-07T05:40:08;96531.25;;;3.04;49.90
49044;BME280;34860;48.066;14.124;2023-04-07T05:42:58;96534.41;;;3.06;49.79
49044;BME280;34860;48.066;14.124;2023-04-07T05:45:48;96535.59;;;3.09;49.91
49044;BME280;34860;48.066;14.124;2023-04-07T05:48:38;96531.28;;;3.12;49.67
49044;BME280;34860;48.066;14.124;2023-04-07T05:51:26;96537.94;;;3.14;49.82
49044;BME280;34860;48.066;14.124;2023-04-07T05:54:15;96541.88;;;3.17;49.89
49044;BME280;34860;48.066;14.124;2023-04-07T05:57:03;96544.22;;;3.18;49.79
49044;BME280;34860;48.066;14.124;2023-04-07T05:59:51;96540.69;;;3.21;49.83
49044;BME280;34860;48.066;14.124;2023-04-07T06:02:39;96539.53;;;3.26;49.92
49044;BME280;34860;48.066;14.124;2023-04-07T06:05:34;96535.22;;;3.32;49.77
49044;BME280;34860;48.066;14.124;2023-04-07T06:08:22;96541.50;;;3.40;49.58
49044;BME280;34860;48.066;14.124;2023-04-07T06:11:12;96537.94;;;3.50;49.50
49044;BME280;34860;48.066;14.124;2023-04-07T06:14:00;96547.34;;;3.63;49.65
49044;BME280;34860;48.066;14.124;2023-04-07T06:16:49;96548.91;;;3.79;49.43
49044;BME280;34860;48.066;14.124;2023-04-07T06:19:38;96540.66;;;3.90;49.43
49044;BME280;34860;48.066;14.124;2023-04-07T06:22:28;96550.84;;;4.00;49.17
49044;BME280;34860;48.066;14.124;2023-04-07T06:25:18;96547.28;;;4.10;49.12
49044;BME280;34860;48.066;14.124;2023-04-07T06:28:08;96550.38;;;4.19;49.18
49044;BME280;34860;48.066;14.124;2023-04-07T06:30:56;96547.59;;;4.30;49.24
49044;BME280;34860;48.066;14.124;2023-04-07T06:33:48;96546.44;;;4.31;49.22
49044;BME280;34860;48.066;14.124;2023-04-07T06:36:37;96548.81;;;4.29;49.33
49044;BME280;34860;48.066;14.124;2023-04-07T06:39:27;96542.50;;;4.32;49.40
49044;BME280;34860;48.066;14.124;2023-04-07T06:42:15;96546.38;;;4.39;49.47
49044;BME280;34860;48.066;14.124;2023-04-07T06:45:10;96548.34;;;4.45;49.43
49044;BME280;34860;48.066;14.124;2023-04-07T06:48:01;96556.97;;;4.51;49.39
49044;BME280;34860;48.066;14.124;2023-04-07T06:50:49;96555.00;;;4.55;49.30
49044;BME280;34860;48.066;14.124;2023-04-07T06:53:37;96549.47;;;4.59;49.40
49044;BME280;34860;48.066;14.124;2023-04-07T06:56:27;96551.41;;;4.62;49.50
49044;BME280;34860;48.066;14.124;2023-04-07T06:59:16;96554.16;;;4.65;49.61
49044;BME280;34860;48.066;14.124;2023-04-07T07:02:04;96561.97;;;4.74;49.58
49044;BME280;34860;48.066;14.124;2023-04-07T07:04:53;96556.44;;;4.78;49.53
49044;BME280;34860;48.066;14.124;2023-04-07T07:07:41;96554.84;;;4.84;49.57
49044;BME280;34860;48.066;14.124;2023-04-07T07:10:29;96559.53;;;4.90;49.60
49044;BME280;34860;48.066;14.124;2023-04-07T07:13:20;96555.16;;;4.97;49.49
49044;BME280;34860;48.066;14.124;2023-04-07T07:16:10;96550.81;;;5.03;49.63
49044;BME280;34860;48.066;14.124;2023-04-07T07:18:59;96554.72;;;5.09;49.46
49044;BME280;34860;48.066;14.124;2023-04-07T07:21:47;96555.81;;;5.15;49.52
49044;BME280;34860;48.066;14.124;2023-04-07T07:24:35;96557.38;;;5.23;49.63
49044;BME280;34860;48.066;14.124;2023-04-07T07:27:23;96557.28;;;5.34;49.60
49044;BME280;34860;48.066;14.124;2023-04-07T07:30:13;96564.72;;;5.41;49.62
49044;BME280;34860;48.066;14.124;2023-04-07T07:33:02;96563.06;;;5.51;49.51
49044;BME280;34860;48.066;14.124;2023-04-07T07:35:54;96561.00;;;5.62;49.44
49044;BME280;34860;48.066;14.124;2023-04-07T07:38:42;96567.22;;;5.73;49.34
49044;BME280;34860;48.066;14.124;2023-04-07T07:41:29;96562.38;;;5.85;49.37
49044;BME280;34860;48.066;14.124;2023-04-07T07:44:18;96568.97;;;5.98;49.20
49044;BME280;34860;48.066;14.124;2023-04-07T07:47:09;96565.69;;;6.10;49.19
49044;BME280;34860;48.066;14.124;2023-04-07T07:49:58;96567.53;;;6.24;49.18
49044;BME280;34860;48.066;14.124;2023-04-07T07:52:50;96577.22;;;6.40;49.06
49044;BME280;34860;48.066;14.124;2023-04-07T07:55:38;96579.41;;;6.55;49.01
49044;BME280;34860;48.066;14.124;2023-04-07T07:58:26;96570.56;;;6.68;49.06
49044;BME280;34860;48.066;14.124;2023-04-07T08:01:19;96575.50;;;6.84;48.79
49044;BME280;34860;48.066;14.124;2023-04-07T08:04:09;96579.25;;;7.01;48.86
49044;BME280;34860;48.066;14.124;2023-04-07T08:06:57;96573.50;;;7.15;48.73
49044;BME280;34860;48.066;14.124;2023-04-07T08:09:46;96574.84;;;7.31;48.73
49044;BME280;34860;48.066;14.124;2023-04-07T08:12:34;96574.28;;;7.43;48.69
49044;BME280;34860;48.066;14.124;2023-04-07T08:15:22;96576.88;;;7.54;48.66
49044;BME280;34860;48.066;14.124;2023-04-07T08:18:10;96573.91;;;7.68;48.64
49044;BME280;34860;48.066;14.124;2023-04-07T08:21:00;96572.88;;;7.82;48.64
49044;BME280;34860;48.066;14.124;2023-04-07T08:23:48;96567.94;;;7.93;48.53
49044;BME280;34860;48.066;14.124;2023-04-07T08:26:37;96565.34;;;8.06;48.54
49044;BME280;34860;48.066;14.124;2023-04-07T08:29:25;96574.59;;;8.19;48.63
49044;BME280;34860;48.066;14.124;2023-04-07T08:32:13;96562.91;;;8.32;48.47
49044;BME280;34860;48.066;14.124;2023-04-07T08:35:01;96558.31;;;8.45;48.58
49044;BME280;34860;48.066;14.124;2023-04-07T08:37:52;96568.34;;;8.59;48.60
49044;BME280;34860;48.066;14.124;2023-04-07T08:40:40;96563.00;;;8.68;48.48
49044;BME280;34860;48.066;14.124;2023-04-07T08:43:29;96558.47;;;8.78;48.48
49044;BME280;34860;48.066;14.124;2023-04-07T08:46:18;96558.59;;;8.91;48.51
49044;BME280;34860;48.066;14.124;2023-04-07T08:49:11;96550.09;;;8.98;48.56
49044;BME280;34860;48.066;14.124;2023-04-07T08:52:05;96553.06;;;9.07;48.43
49044;BME280;34860;48.066;14.124;2023-04-07T08:54:58;96559.16;;;9.19;48.48
49044;BME280;34860;48.066;14.124;2023-04-07T08:57:49;96555.38;;;9.29;48.42
49044;BME280;34860;48.066;14.124;2023-04-07T09:00:38;96550.38;;;9.40;48.41
49044;BME280;34860;48.066;14.124;2023-04-07T09:03:27;96545.34;;;9.52;48.50
49044;BME280;34860;48.066;14.124;2023-04-07T09:06:18;96535.53;;;9.63;48.39
49044;BME280;34860;48.066;14.124;2023-04-07T09:09:06;96551.06;;;9.77;48.23
49044;BME280;34860;48.066;14.124;2023-04-07T09:11:56;96542.03;;;9.90;48.20
49044;BME280;34860;48.066;14.124;2023-04-07T09:14:48;96546.88;;;10.02;48.23
49044;BME280;34860;48.066;14.124;2023-04-07T09:17:36;96533.56;;;10.10;48.21
49044;BME280;34860;48.066;14.124;2023-04-07T09:20:24;96537.75;;;10.18;48.56
49044;BME280;34860;48.066;14.124;2023-04-07T09:23:26;96536.75;;;10.25;48.33
49044;BME280;34860;48.066;14.124;2023-04-07T09:26:21;96532.59;;;10.33;48.29
49044;BME280;34860;48.066;14.124;2023-04-07T09:29:17;96527.53;;;10.44;48.25
49044;BME280;34860;48.066;14.124;2023-04-07T09:32:06;96534.78;;;10.54;48.17
49044;BME280;34860;48.066;14.124;2023-04-07T09:34:58;96530.81;;;10.68;48.10
49044;BME280;34860;48.066;14.124;2023-04-07T09:38:00;96530.06;;;10.81;48.14
49044;BME280;34860;48.066;14.124;2023-04-07T09:40:48;96534.19;;;10.89;47.99
49044;BME280;34860;48.066;14.124;2023-04-07T09:43:38;96518.41;;;10.99;48.02
49044;BME280;34860;48.066;14.124;2023-04-07T09:46:28;96525.22;;;11.11;47.85
49044;BME280;34860;48.066;14.124;2023-04-07T09:49:16;96528.00;;;11.23;47.88
49044;BME280;34860;48.066;14.124;2023-04-07T09:52:07;96522.22;;;11.31;47.99
49044;BME280;34860;48.066;14.124;2023-04-07T09:54:57;96519.09;;;11.41;47.90
49044;BME280;34860;48.066;14.124;2023-04-07T09:57:49;96510.41;;;11.52;47.90
49044;BME280;34860;48.066;14.124;2023-04-07T10:00:37;96500.91;;;11.62;47.78
49044;BME280;34860;48.066;14.124;2023-04-07T10:03:26;96502.91;;;11.75;47.82
49044;BME280;34860;48.066;14.124;2023-04-07T10:06:14;96499.78;;;11.86;47.68
49044;BME280;34860;48.066;14.124;2023-04-07T10:09:03;96494.63;;;11.97;47.52
49044;BME280;34860;48.066;14.124;2023-04-07T10:11:52;96490.69;;;12.07;47.61
49044;BME280;34860;48.066;14.124;2023-04-07T10:14:40;96486.75;;;12.17;47.53
49044;BME280;34860;48.066;14.124;2023-04-07T10:17:35;96490.25;;;12.31;47.43
49044;BME280;34860;48.066;14.124;2023-04-07T10:20:25;96482.28;;;12.42;47.52
49044;BME280;34860;48.066;14.124;2023-04-07T10:23:17;96477.41;;;12.56;47.34
49044;BME280;34860;48.066;14.124;2023-04-07T10:26:09;96473.47;;;12.66;47.32
49044;BME280;34860;48.066;14.124;2023-04-07T10:29:02;96484.34;;;12.73;47.34
49044;BME280;34860;48.066;14.124;2023-04-07T10:31:53;96490.31;;;12.84;47.25
49044;BME280;34860;48.066;14.124;2023-04-07T10:34:55;96475.94;;;12.95;47.33
49044;BME280;34860;48.066;14.124;2023-04-07T10:38:10;96478.16;;;13.09;47.30
49044;BME280;34860;48.066;14.124;2023-04-07T10:40:59;96483.19;;;13.24;47.05
49044;BME280;34860;48.066;14.124;2023-04-07T10:43:47;96480.19;;;13.40;47.02
49044;BME280;34860;48.066;14.124;2023-04-07T10:47:03;96474.97;;;13.61;46.96
49044;BME280;34860;48.066;14.124;2023-04-07T10:50:15;96471.28;;;13.83;46.83
49044;BME280;34860;48.066;14.124;2023-04-07T10:53:06;96459.47;;;13.97;46.70
49044;BME280;34860;48.066;14.124;2023-04-07T10:55:56;96459.63;;;14.12;46.53
49044;BME280;34860;48.066;14.124;2023-04-07T10:58:46;96462.59;;;14.27;46.51
49044;BME280;34860;48.066;14.124;2023-04-07T11:02:30;96466.44;;;14.48;46.46
49044;BME280;34860;48.066;14.124;2023-04-07T11:05:20;96465.53;;;14.60;46.41
49044;BME280;34860;48.066;14.124;2023-04-07T11:08:09;96463.78;;;14.72;46.35
49044;BME280;34860;48.066;14.124;2023-04-07T11:10:57;96467.34;;;14.82;46.37
49044;BME280;34860;48.066;14.124;2023-04-07T11:13:46;96464.81;;;14.93;46.22
49044;BME280;34860;48.066;14.124;2023-04-07T11:16:36;96463.66;;;15.09;46.39
49044;BME280;34860;48.066;14.124;2023-04-07T11:19:26;96452.13;;;15.25;46.26
49044;BME280;34860;48.066;14.124;2023-04-07T11:22:14;96459.75;;;15.49;46.15
49044;BME280;34860;48.066;14.124;2023-04-07T11:25:19;96451.06;;;15.71;45.66
49044;BME280;34860;48.066;14.124;2023-04-07T11:28:10;96451.28;;;15.92;45.75
49044;BME280;34860;48.066;14.124;2023-04-07T11:31:03;96449.78;;;16.06;45.71
49044;BME280;34860;48.066;14.124;2023-04-07T11:33:54;96447.59;;;16.25;45.72
49044;BME280;34860;48.066;14.124;2023-04-07T11:36:43;96445.41;;;16.44;45.45
49044;BME280;34860;48.066;14.124;2023-04-07T11:39:33;96443.66;;;16.61;45.55
49044;BME280;34860;48.066;14.124;2023-04-07T11:42:31;96447.16;;;16.71;45.59
49044;BME280;34860;48.066;14.124;2023-04-07T11:45:20;96453.16;;;16.79;45.52
49044;BME280;34860;48.066;14.124;2023-04-07T11:48:27;96435.47;;;16.87;45.69
49044;BME280;34860;48.066;14.124;2023-04-07T11:51:17;96434.66;;;17.02;45.44
49044;BME280;34860;48.066;14.124;2023-04-07T11:54:06;96432.63;;;17.17;45.40
49044;BME280;34860;48.066;14.124;2023-04-07T11:56:55;96433.53;;;17.29;45.36
49044;BME280;34860;48.066;14.124;2023-04-07T11:59:43;96421.97;;;17.42;45.35
49044;BME280;34860;48.066;14.124;2023-04-07T12:02:33;96416.81;;;17.55;45.14
49044;BME280;34860;48.066;14.124;2023-04-07T12:05:22;96424.69;;;17.72;45.16
49044;BME280;34860;48.066;14.124;2023-04-07T12:08:10;96423.09;;;17.86;45.22
49044;BME280;34860;48.066;14.124;2023-04-07T12:11:03;96410.72;;;17.98;45.04
49044;BME280;34860;48.066;14.124;2023-04-07T12:13:52;96418.28;;;18.12;44.91
49044;BME280;34860;48.066;14.124;2023-04-07T12:16:40;96414.84;;;18.23;45.08
49044;BME280;34860;48.066;14.124;2023-04-07T12:19:30;96405.47;;;18.32;44.72
49044;BME280;34860;48.066;14.124;2023-04-07T12:22:20;96411.66;;;18.36;45.09
49044;BME280;34860;48.066;14.124;2023-04-07T12:25:08;96414.53;;;18.42;45.08
49044;BME280;34860;48.066;14.124;2023-04-07T12:27:57;96400.81;;;18.49;44.87
49044;BME280;34860;48.066;14.124;2023-04-07T12:30:45;96399.09;;;18.58;44.98
49044;BME280;34860;48.066;14.124;2023-04-07T12:33:35;96403.75;;;18.66;44.75
49044;BME280;34860;48.066;14.124;2023-04-07T12:36:23;96399.44;;;18.71;44.78
49044;BME280;34860;48.066;14.124;2023-04-07T12:39:13;96405.41;;;18.79;44.72
49044;BME280;34860;48.066;14.124;2023-04-07T12:42:01;96400.00;;;18.75;44.53
49044;BME280;34860;48.066;14.124;2023-04-07T12:44:53;96390.19;;;18.65;44.80
49044;BME280;34860;48.066;14.124;2023-04-07T12:47:43;96388.91;;;18.66;44.99
49044;BME280;34860;48.066;14.124;2023-04-07T12:50:34;96389.41;;;18.64;44.97
49044;BME280;34860;48.066;14.124;2023-04-07T12:53:22;96390.91;;;18.60;45.04
49044;BME280;34860;48.066;14.124;2023-04-07T12:56:12;96387.81;;;18.58;45.01
49044;BME280;34860;48.066;14.124;2023-04-07T12:59:02;96391.16;;;18.62;44.87
49044;BME280;34860;48.066;14.124;2023-04-07T13:01:52;96388.41;;;18.67;44.91
49044;BME280;34860;48.066;14.124;2023-04-07T13:04:40;96394.31;;;18.69;44.72
49044;BME280;34860;48.066;14.124;2023-04-07T13:07:32;96391.28;;;18.73;44.63
49044;BME280;34860;48.066;14.124;2023-04-07T13:10:22;96387.44;;;18.76;44.73
49044;BME280;34860;48.066;14.124;2023-04-07T13:13:10;96377.75;;;18.77;44.60
49044;BME280;34860;48.066;14.124;2023-04-07T13:15:59;96385.00;;;18.84;44.84
49044;BME280;34860;48.066;14.124;2023-04-07T13:18:50;96383.00;;;18.90;44.52
49044;BME280;34860;48.066;14.124;2023-04-07T13:21:38;96383.53;;;18.94;44.51
49044;BME280;34860;48.066;14.124;2023-04-07T13:24:32;96379.50;;;19.01;44.34
49044;BME280;34860;48.066;14.124;2023-04-07T13:27:20;96383.88;;;19.08;44.28
49044;BME280;34860;48.066;14.124;2023-04-07T13:30:09;96379.84;;;19.14;44.43
49044;BME280;34860;48.066;14.124;2023-04-07T13:32:58;96372.19;;;19.20;44.22
49044;BME280;34860;48.066;14.124;2023-04-07T13:35:47;96366.09;;;19.28;44.10
49044;BME280;34860;48.066;14.124;2023-04-07T13:38:35;96359.97;;;19.35;43.84
49044;BME280;34860;48.066;14.124;2023-04-07T13:41:23;96357.41;;;19.37;44.15
49044;BME280;34860;48.066;14.124;2023-04-07T13:44:13;96352.06;;;19.39;44.07
49044;BME280;34860;48.066;14.124;2023-04-07T13:47:01;96349.78;;;19.43;43.99
49044;BME280;34860;48.066;14.124;2023-04-07T13:49:51;96354.69;;;19.48;43.85
49044;BME280;34860;48.066;14.124;2023-04-07T13:52:40;96352.88;;;19.51;43.95
49044;BME280;34860;48.066;14.124;2023-04-07T13:55:29;96353.66;;;19.51;44.03
49044;BME280;34860;48.066;14.124;2023-04-07T13:58:17;96353.66;;;19.51;43.88
49044;BME280;34860;48.066;14.124;2023-04-07T14:01:06;96353.13;;;19.47;43.88
49044;BME280;34860;48.066;14.124;2023-04-07T14:03:57;96348.75;;;19.40;43.96
49044;BME280;34860;48.066;14.124;2023-04-07T14:06:47;96349.25;;;19.39;44.08
49044;BME280;34860;48.066;14.124;2023-04-07T14:09:39;96343.56;;;19.33;44.06
49044;BME280;34860;48.066;14.124;2023-04-07T14:12:28;96339.75;;;19.31;44.00
49044;BME280;34860;48.066;14.124;2023-04-07T14:15:16;96346.88;;;19.26;44.18
49044;BME280;34860;48.066;14.124;2023-04-07T14:18:05;96345.56;;;19.21;44.08
49044;BME280;34860;48.066;14.124;2023-04-07T14:20:56;96347.59;;;19.15;43.90
49044;BME280;34860;48.066;14.124;2023-04-07T14:23:44;96348.81;;;19.09;43.99
49044;BME280;34860;48.066;14.124;2023-04-07T14:26:34;96343.88;;;18.98;43.96
49044;BME280;34860;48.066;14.124;2023-04-07T14:29:22;96349.44;;;18.86;44.08
49044;BME280;34860;48.066;14.124;2023-04-07T14:32:10;96345.19;;;18.70;43.99
49044;BME280;34860;48.066;14.124;2023-04-07T14:34:58;96341.72;;;18.55;44.33
49044;BME280;34860;48.066;14.124;2023-04-07T14:37:48;96330.28;;;18.32;44.50
49044;BME280;34860;48.066;14.124;2023-04-07T14:40:38;96333.72;;;18.16;44.34
49044;BME280;34860;48.066;14.124;2023-04-07T14:43:29;96331.31;;;18.03;44.36
49044;BME280;34860;48.066;14.124;2023-04-07T14:46:17;96339.13;;;17.93;44.38
49044;BME280;34860;48.066;14.124;2023-04-07T14:49:05;96336.09;;;17.76;44.45
49044;BME280;34860;48.066;14.124;2023-04-07T14:51:54;96331.06;;;17.60;44.58
49044;BME280;34860;48.066;14.124;2023-04-07T14:54:43;96334.72;;;17.46;44.57
49044;BME280;34860;48.066;14.124;2023-04-07T14:57:34;96329.44;;;17.33;44.57
49044;BME280;34860;48.066;14.124;2023-04-07T15:00:23;96331.09;;;17.24;44.49